Time;durP1;ratioP1;P1;durP2;ratioP2;P2;SDS_P1;SDS_P2;PMS_P1;PMS_P2;Temp;Humidity;BMP_temperature;BMP_pressure;BME280_temperature;BME280_humidity;BME280_pressure;Samples;Min_cycle;Max_cycle;Signal;HPM_P1;HPM_P2
2023/06/02 00:00:46;;;;;;;8.30;3.78;;;;;;;13.00;100.00;102124.34;5245280;28;20064;-69
2023/06/02 00:03:18;;;;;;;8.27;3.47;;;;;;;13.00;100.00;102125.22;5231732;28;20381;-69
2023/06/02 00:05:49;;;;;;;5.68;3.85;;;;;;;13.02;100.00;102131.31;5244483;28;20084;-69
2023/06/02 00:08:20;;;;;;;8.75;4.30;;;;;;;12.97;100.00;102128.22;5244243;28;20949;-69
2023/06/02 00:10:51;;;;;;;7.53;3.42;;;;;;;12.94;100.00;102125.81;5230977;28;20032;-69
2023/06/02 00:13:21;;;;;;;8.68;3.22;;;;;;;12.93;100.00;102127.66;5224939;28;20470;-69
2023/06/02 00:15:52;;;;;;;7.18;3.20;;;;;;;12.90;100.00;102129.81;5224964;28;20417;-69
2023/06/02 00:18:24;;;;;;;10.65;3.60;;;;;;;12.79;100.00;102133.53;5224753;28;20693;-69
2023/06/02 00:20:56;;;;;;;12.50;4.05;;;;;;;12.80;100.00;102132.56;5225139;28;20044;-69
2023/06/02 00:23:29;;;;;;;9.27;3.58;;;;;;;12.77;100.00;102138.25;5225764;28;20036;-69
2023/06/02 00:26:00;;;;;;;14.88;3.40;;;;;;;12.65;100.00;102126.84;5242486;28;20028;-69
2023/06/02 00:28:30;;;;;;;9.00;3.75;;;;;;;12.61;100.00;102132.66;5243544;28;20103;-69
2023/06/02 00:31:01;;;;;;;12.45;4.10;;;;;;;12.59;100.00;102135.47;5244081;28;20020;-69
2023/06/02 00:33:32;;;;;;;11.82;4.53;;;;;;;12.60;100.00;102133.63;5243758;28;20369;-69
2023/06/02 00:36:02;;;;;;;8.38;4.00;;;;;;;12.56;100.00;102130.41;5243356;28;20020;-69
2023/06/02 00:38:33;;;;;;;12.85;4.25;;;;;;;12.54;100.00;102129.69;5243839;28;20062;-69
2023/06/02 00:41:03;;;;;;;12.82;4.38;;;;;;;12.51;100.00;102126.47;5244025;28;20047;-69
2023/06/02 00:43:34;;;;;;;8.18;4.20;;;;;;;12.51;100.00;102127.31;5243363;28;20023;-69
2023/06/02 00:46:05;;;;;;;13.90;4.68;;;;;;;12.50;100.00;102120.25;5242893;28;20039;-69
2023/06/02 00:48:35;;;;;;;9.95;4.32;;;;;;;12.47;100.00;102133.13;5243246;28;20028;-69
2023/06/02 00:51:06;;;;;;;9.10;4.15;;;;;;;12.44;100.00;102123.50;5230862;28;20025;-69
2023/06/02 00:53:38;;;;;;;13.18;4.38;;;;;;;12.40;100.00;102127.50;5244365;28;20039;-69
2023/06/02 00:56:12;;;;;;;13.13;4.80;;;;;;;12.40;100.00;102125.66;5230871;28;20494;-69
2023/06/02 00:58:43;;;;;;;14.10;4.38;;;;;;;12.41;100.00;102126.50;5245392;28;20021;-69
2023/06/02 01:01:18;;;;;;;11.90;4.22;;;;;;;12.42;100.00;102117.44;5231157;28;20074;-69
2023/06/02 01:03:50;;;;;;;14.27;4.32;;;;;;;12.38;100.00;102122.25;5246546;28;20025;-69
2023/06/02 01:06:31;;;;;;;14.77;4.30;;;;;;;12.36;100.00;102112.66;5227681;28;20021;-69
2023/06/02 01:09:06;;;;;;;13.80;3.88;;;;;;;12.37;100.00;102119.72;5206442;28;20111;-70
2023/06/02 01:11:37;;;;;;;11.57;4.47;;;;;;;12.42;100.00;102125.50;5244798;28;20062;-70
2023/06/02 01:14:09;;;;;;;8.80;3.90;;;;;;;12.39;100.00;102136.56;5244555;28;20032;-70
2023/06/02 01:16:57;;;;;;;17.30;4.05;;;;;;;12.37;100.00;102134.00;5244095;28;20024;-69
2023/06/02 01:19:42;;;;;;;13.95;4.07;;;;;;;12.36;100.00;102131.47;5237245;28;20090;-70
2023/06/02 01:22:17;;;;;;;13.15;3.92;;;;;;;12.31;100.00;102129.22;5227360;28;20035;-69
2023/06/02 01:24:50;;;;;;;9.25;4.10;;;;;;;12.27;100.00;102127.81;5244325;28;20035;-68
2023/06/02 01:27:20;;;;;;;10.93;4.05;;;;;;;12.25;100.00;102127.13;5229392;28;20477;-69
2023/06/02 01:29:54;;;;;;;11.80;4.05;;;;;;;12.23;100.00;102128.25;5244237;28;20020;-69
2023/06/02 01:32:35;;;;;;;13.60;4.65;;;;;;;12.16;100.00;102125.31;5244135;28;20020;-69
2023/06/02 01:35:10;;;;;;;10.05;3.78;;;;;;;12.13;100.00;102129.13;5230212;28;20025;-69
2023/06/02 01:37:46;;;;;;;14.60;4.60;;;;;;;12.13;100.00;102130.97;5243252;28;20081;-68
2023/06/02 01:40:17;;;;;;;9.73;3.90;;;;;;;12.11;100.00;102128.44;5243761;28;20025;-69
2023/06/02 01:42:49;;;;;;;10.65;4.68;;;;;;;12.13;100.00;102120.19;5233800;28;20027;-69
2023/06/02 01:45:21;;;;;;;13.43;4.70;;;;;;;12.12;100.00;102127.44;5240848;28;20115;-69
2023/06/02 01:47:51;;;;;;;14.32;5.00;;;;;;;12.16;100.00;102133.38;5243048;28;20020;-69
2023/06/02 01:50:22;;;;;;;15.48;4.50;;;;;;;12.15;100.00;102121.78;5243247;28;20051;-69
2023/06/02 01:52:53;;;;;;;14.63;4.45;;;;;;;12.10;100.00;102134.81;5244020;28;20052;-69
2023/06/02 01:55:24;;;;;;;19.60;5.47;;;;;;;12.08;100.00;102131.41;5243577;28;20031;-69
2023/06/02 01:57:54;;;;;;;12.02;5.18;;;;;;;12.04;100.00;102124.59;5230567;28;20052;-68
2023/06/02 02:00:26;;;;;;;15.43;4.95;;;;;;;12.03;100.00;102127.44;5248031;28;20024;-69
2023/06/02 02:02:57;;;;;;;12.60;5.45;;;;;;;12.03;100.00;102127.44;5247201;28;20094;-68
2023/06/02 02:05:28;;;;;;;15.48;4.70;;;;;;;12.04;100.00;102132.66;5247659;28;20429;-69
2023/06/02 02:07:58;;;;;;;14.40;4.70;;;;;;;12.08;100.00;102122.47;5247046;28;20036;-69
2023/06/02 02:10:29;;;;;;;16.52;4.57;;;;;;;12.01;100.00;102122.22;5247441;28;20031;-69
2023/06/02 02:13:00;;;;;;;20.08;4.80;;;;;;;11.95;100.00;102128.19;5247408;28;20032;-69
2023/06/02 02:15:30;;;;;;;13.68;3.78;;;;;;;11.87;100.00;102123.50;5246935;28;20028;-69
2023/06/02 02:18:02;;;;;;;14.65;3.92;;;;;;;11.79;100.00;102127.88;5229182;28;20433;-69
2023/06/02 02:20:39;;;;;;;10.65;3.72;;;;;;;11.78;100.00;102127.03;5242352;28;20075;-69
2023/06/02 02:23:10;;;;;;;14.23;4.30;;;;;;;11.71;100.00;102122.38;5238574;28;20024;-69
2023/06/02 02:25:41;;;;;;;13.65;4.07;;;;;;;11.70;100.00;102120.66;5246552;28;20565;-69
2023/06/02 02:28:11;;;;;;;13.77;4.10;;;;;;;11.73;100.00;102120.38;5247146;28;20440;-69
2023/06/02 02:30:42;;;;;;;21.67;4.38;;;;;;;11.72;100.00;102124.06;5247102;28;20509;-69
2023/06/02 02:33:13;;;;;;;17.10;5.38;;;;;;;11.72;100.00;102124.06;5247159;28;20047;-69
2023/06/02 02:35:44;;;;;;;20.27;4.60;;;;;;;11.70;100.00;102126.91;5246461;28;20400;-68
2023/06/02 02:38:15;;;;;;;12.65;4.28;;;;;;;11.66;100.00;102120.97;5246608;28;20016;-69
2023/06/02 02:40:46;;;;;;;9.23;4.03;;;;;;;11.71;100.00;102122.38;5247070;28;20028;-69
2023/06/02 02:43:17;;;;;;;12.73;4.05;;;;;;;11.73;100.00;102131.97;5244842;28;20025;-69
2023/06/02 02:45:48;;;;;;;10.95;4.75;;;;;;;11.70;100.00;102128.72;5235482;28;20060;-69
2023/06/02 02:48:18;;;;;;;14.85;4.35;;;;;;;11.65;100.00;102121.97;5246682;28;20024;-69
2023/06/02 02:50:50;;;;;;;18.48;5.68;;;;;;;11.62;100.00;102124.06;5247151;28;20036;-69
2023/06/02 02:53:21;;;;;;;15.13;4.90;;;;;;;11.60;100.00;102126.91;5241725;28;20021;-69
2023/06/02 02:55:52;;;;;;;20.55;5.13;;;;;;;11.58;100.00;102126.19;5237981;28;20021;-68
2023/06/02 02:58:24;;;;;;;10.00;4.03;;;;;;;11.60;100.00;102124.22;5240483;28;20031;-69
2023/06/02 03:00:55;;;;;;;16.35;4.57;;;;;;;11.59;100.00;102119.81;5239609;28;20504;-69
2023/06/02 03:03:26;;;;;;;13.30;4.25;;;;;;;11.58;100.00;102118.13;5246490;28;20031;-69
2023/06/02 03:05:57;;;;;;;12.13;4.55;;;;;;;11.58;100.00;102120.81;5246346;28;20108;-68
2023/06/02 03:08:27;;;;;;;10.82;4.10;;;;;;;11.59;100.00;102125.19;5246493;28;20016;-69
2023/06/02 03:10:58;;;;;;;12.25;4.70;;;;;;;11.56;100.00;102121.97;5242408;28;20032;-69
2023/06/02 03:13:28;;;;;;;10.88;3.97;;;;;;;11.55;100.00;102131.88;5236314;28;20091;-69
2023/06/02 03:15:59;;;;;;;13.02;4.38;;;;;;;11.50;100.00;102130.59;5245643;28;20032;-68
2023/06/02 03:18:30;;;;;;;10.70;4.22;;;;;;;11.49;100.00;102137.78;5234796;28;20131;-69
2023/06/02 03:21:02;;;;;;;16.33;3.90;;;;;;;11.49;100.00;102140.47;5236083;28;20036;-68
2023/06/02 03:23:32;;;;;;;13.95;3.60;;;;;;;11.50;100.00;102135.97;5227472;28;20025;-69
2023/06/02 03:26:03;;;;;;;16.67;4.10;;;;;;;11.46;100.00;102138.06;5244718;28;20126;-69
2023/06/02 03:28:34;;;;;;;10.73;3.85;;;;;;;11.50;100.00;102136.81;5245781;28;20056;-68
2023/06/02 03:31:04;;;;;;;16.90;3.88;;;;;;;11.52;100.00;102140.19;5246183;28;20020;-68
2023/06/02 03:33:35;;;;;;;16.50;4.25;;;;;;;11.53;100.00;102135.66;5230116;28;20086;-69
2023/06/02 03:36:07;;;;;;;13.13;3.40;;;;;;;11.54;100.00;102134.66;5224854;28;20028;-68
2023/06/02 03:38:38;;;;;;;23.88;4.80;;;;;;;11.54;100.00;102146.25;5224989;28;20029;-68
2023/06/02 03:41:08;;;;;;;13.48;3.47;;;;;;;11.50;100.00;102136.81;5236282;28;20090;-68
2023/06/02 03:43:40;;;;;;;16.23;3.45;;;;;;;11.48;100.00;102132.56;5227591;28;20024;-69
2023/06/02 03:46:10;;;;;;;9.70;3.80;;;;;;;11.46;100.00;102130.00;5237049;28;20043;-69
2023/06/02 03:48:41;;;;;;;13.57;3.47;;;;;;;11.46;100.00;102129.16;5245593;28;20021;-69
2023/06/02 03:51:11;;;;;;;18.73;4.18;;;;;;;11.43;100.00;102124.91;5245435;28;20031;-69
2023/06/02 03:53:42;;;;;;;14.65;3.70;;;;;;;11.41;100.00;102135.81;5245915;28;20043;-68
2023/06/02 03:56:12;;;;;;;9.38;3.92;;;;;;;11.42;100.00;102125.91;5245117;28;20077;-68
2023/06/02 03:58:43;;;;;;;23.60;3.97;;;;;;;11.44;100.00;102125.75;5245653;28;20013;-69
2023/06/02 04:01:16;;;;;;;11.75;3.90;;;;;;;11.45;100.00;102130.16;5245489;28;20107;-69
2023/06/02 04:03:46;;;;;;;12.63;4.43;;;;;;;11.41;100.00;102127.75;5245205;28;20350;-68
2023/06/02 04:06:17;;;;;;;17.40;4.18;;;;;;;11.44;100.00;102121.22;5244904;28;20024;-68
2023/06/02 04:08:47;;;;;;;12.55;4.00;;;;;;;11.48;100.00;102132.56;5227471;28;20393;-69
2023/06/02 04:11:22;;;;;;;14.55;4.28;;;;;;;11.50;100.00;102131.44;5245349;28;20085;-68
2023/06/02 04:13:52;;;;;;;23.08;4.22;;;;;;;11.51;100.00;102137.66;5245343;28;20025;-69
2023/06/02 04:16:23;;;;;;;15.07;4.10;;;;;;;11.50;100.00;102128.75;5244490;28;20034;-69
2023/06/02 04:18:53;;;;;;;17.25;3.80;;;;;;;11.51;100.00;102127.75;5232033;28;20390;-69
2023/06/02 04:21:24;;;;;;;18.83;4.68;;;;;;;11.53;100.00;102128.44;5241782;28;20024;-69
2023/06/02 04:23:55;;;;;;;16.55;4.28;;;;;;;11.52;100.00;102129.44;5242735;28;20482;-69
2023/06/02 04:26:25;;;;;;;25.85;4.95;;;;;;;11.51;100.00;102132.28;5244357;28;20025;-69
2023/06/02 04:28:56;;;;;;;22.33;4.93;;;;;;;11.53;100.00;102123.06;5241266;28;20064;-69
2023/06/02 04:31:39;;;;;;;14.45;4.50;;;;;;;11.52;100.00;102121.38;5235163;28;20496;-69
2023/06/02 04:34:11;;;;;;;17.13;4.47;;;;;;;11.56;100.00;102127.34;5245015;28;20032;-69
2023/06/02 04:36:42;;;;;;;15.25;4.70;;;;;;;11.57;100.00;102135.25;5244313;28;20016;-69
2023/06/02 04:39:13;;;;;;;11.20;4.30;;;;;;;11.61;100.00;102139.34;5244929;28;20044;-68
2023/06/02 04:41:43;;;;;;;12.38;5.15;;;;;;;11.70;100.00;102142.16;5231657;28;20479;-69
2023/06/02 04:44:16;;;;;;;20.42;4.68;;;;;;;11.66;100.00;102142.47;5244991;28;20059;-69
2023/06/02 04:46:47;;;;;;;13.10;4.78;;;;;;;11.72;100.00;102142.88;5244064;28;20478;-69
2023/06/02 04:49:17;;;;;;;19.83;5.05;;;;;;;11.70;100.00;102142.16;5234221;28;20087;-69
2023/06/02 04:51:49;;;;;;;16.13;4.65;;;;;;;11.66;100.00;102147.84;5242130;28;20816;-69
2023/06/02 04:54:19;;;;;;;16.92;4.65;;;;;;;11.68;100.00;102148.53;5232657;28;20100;-68
2023/06/02 04:56:50;;;;;;;19.23;5.03;;;;;;;11.68;100.00;102148.53;5242712;28;20150;-68
2023/06/02 04:59:22;;;;;;;17.05;4.07;;;;;;;11.68;100.00;102147.69;5244913;28;20150;-68
2023/06/02 05:01:52;;;;;;;23.77;4.15;;;;;;;11.71;100.00;102152.78;5244510;28;20021;-69
2023/06/02 05:04:23;;;;;;;15.80;3.58;;;;;;;11.69;100.00;102154.75;5244559;28;20381;-69
2023/06/02 05:06:54;;;;;;;15.38;4.07;;;;;;;11.72;100.00;102159.00;5244018;28;20032;-68
2023/06/02 05:09:25;;;;;;;10.70;4.25;;;;;;;11.73;100.00;102160.72;5244415;28;20032;-68
2023/06/02 05:11:55;;;;;;;14.35;4.00;;;;;;;11.75;100.00;102156.91;5244706;28;20025;-69
2023/06/02 05:14:26;;;;;;;14.48;4.38;;;;;;;11.74;100.00;102160.56;5244088;28;20020;-69
2023/06/02 05:16:57;;;;;;;18.65;3.88;;;;;;;11.78;100.00;102163.81;5243995;28;20032;-69
2023/06/02 05:19:27;;;;;;;14.10;4.18;;;;;;;11.79;100.00;102169.03;5244419;28;20485;-69
2023/06/02 05:21:58;;;;;;;12.13;4.03;;;;;;;11.76;100.00;102163.13;5237944;28;20039;-69
2023/06/02 05:24:29;;;;;;;15.02;3.85;;;;;;;11.74;100.00;102162.41;5244219;28;20469;-69
2023/06/02 05:27:00;;;;;;;16.80;4.82;;;;;;;11.72;100.00;102157.16;5229708;28;20039;-69
2023/06/02 05:29:30;;;;;;;18.02;4.07;;;;;;;11.75;100.00;102161.44;5244229;28;20016;-69
2023/06/02 05:32:01;;;;;;;16.20;4.20;;;;;;;11.79;100.00;102157.44;5244657;28;20039;-69
2023/06/02 05:34:32;;;;;;;16.20;4.45;;;;;;;11.82;100.00;102166.13;5251076;28;20027;-69
2023/06/02 05:37:03;;;;;;;11.80;3.72;;;;;;;11.84;100.00;102165.97;5236776;28;20099;-69
2023/06/02 05:39:33;;;;;;;20.88;4.60;;;;;;;11.86;100.00;102166.69;5250722;28;20115;-69
2023/06/02 05:42:04;;;;;;;13.77;4.20;;;;;;;11.88;100.00;102172.75;5251092;28;20028;-69
2023/06/02 05:44:35;;;;;;;19.77;4.40;;;;;;;11.88;100.00;102164.69;5233123;28;20031;-69
2023/06/02 05:47:05;;;;;;;11.80;4.30;;;;;;;11.88;100.00;102162.84;5245870;28;20025;-69
2023/06/02 05:49:36;;;;;;;15.45;4.68;;;;;;;11.92;100.00;102158.88;5250909;28;20024;-69
2023/06/02 05:52:07;;;;;;;13.82;4.00;;;;;;;11.97;100.00;102166.53;5236900;28;20021;-69
2023/06/02 05:54:38;;;;;;;14.55;3.80;;;;;;;12.00;100.00;102166.25;5250831;28;20029;-69
2023/06/02 05:57:08;;;;;;;12.20;3.80;;;;;;;12.02;100.00;102166.94;5250181;28;20460;-69
2023/06/02 05:59:39;;;;;;;9.77;3.55;;;;;;;12.05;100.00;102176.56;5236819;28;20025;-69
2023/06/02 06:02:10;;;;;;;16.45;3.85;;;;;;;12.07;100.00;102178.13;5250381;28;20078;-69
2023/06/02 06:04:40;;;;;;;11.60;3.65;;;;;;;12.09;100.00;102173.44;5249799;28;20031;-69
2023/06/02 06:07:11;;;;;;;9.02;3.00;;;;;;;12.18;100.00;102169.88;5238418;28;20128;-69
2023/06/02 06:09:41;;;;;;;10.77;3.42;;;;;;;12.27;100.00;102167.34;5233069;28;20032;-69
2023/06/02 06:12:12;;;;;;;12.40;3.25;;;;;;;12.26;100.00;102166.50;5250067;28;20032;-69
2023/06/02 06:14:43;;;;;;;10.57;3.63;;;;;;;12.41;100.00;102164.19;5248754;28;20024;-69
2023/06/02 06:17:14;;;;;;;17.33;3.47;;;;;;;12.39;100.00;102168.84;5248719;28;20032;-69
2023/06/02 06:19:44;;;;;;;14.98;3.42;;;;;;;12.44;100.00;102163.88;5225237;28;20025;-69
2023/06/02 06:22:16;;;;;;;13.57;3.38;;;;;;;12.51;100.00;102167.69;5240724;28;20059;-69
2023/06/02 06:24:47;;;;;;;13.52;3.55;;;;;;;12.53;100.00;102171.06;5239647;28;20028;-69
2023/06/02 06:27:17;;;;;;;13.77;3.55;;;;;;;12.53;100.00;102171.06;5242982;28;20103;-69
2023/06/02 06:29:48;;;;;;;21.25;4.15;;;;;;;12.55;100.00;102173.59;5239828;28;20696;-69
2023/06/02 06:32:18;;;;;;;15.38;3.72;;;;;;;12.51;100.00;102170.38;5241570;28;20028;-69
2023/06/02 06:34:49;;;;;;;15.82;4.20;;;;;;;12.55;100.00;102162.84;5238473;28;20021;-69
2023/06/02 06:37:19;;;;;;;14.15;4.65;;;;;;;12.55;100.00;102163.72;5241574;28;20496;-69
2023/06/02 06:39:50;;;;;;;11.90;3.60;;;;;;;12.58;100.00;102165.25;5237348;28;20059;-69
2023/06/02 06:42:22;;;;;;;13.45;3.35;;;;;;;12.60;100.00;102169.50;5237056;28;20420;-69
2023/06/02 06:44:52;;;;;;;16.90;3.97;;;;;;;12.65;100.00;102164.53;5231433;28;20036;-69
2023/06/02 06:47:23;;;;;;;16.60;3.78;;;;;;;12.71;100.00;102171.16;5239793;28;20024;-69
2023/06/02 06:49:54;;;;;;;17.15;4.57;;;;;;;12.75;100.00;102160.91;5234899;28;20151;-69
2023/06/02 06:52:25;;;;;;;13.05;3.83;;;;;;;12.83;100.00;102175.34;5242643;28;20112;-69
2023/06/02 06:54:55;;;;;;;20.75;5.15;;;;;;;12.78;100.00;102172.25;5236171;28;20522;-69
2023/06/02 06:57:26;;;;;;;13.85;3.72;;;;;;;12.86;100.00;102174.22;5235704;28;20031;-69
2023/06/02 06:59:57;;;;;;;13.60;3.25;;;;;;;12.81;100.00;102173.81;5237409;28;20032;-69
2023/06/02 07:02:28;;;;;;;15.07;3.30;;;;;;;12.90;100.00;102168.38;5235475;28;20025;-69
2023/06/02 07:04:58;;;;;;;12.90;3.65;;;;;;;12.89;100.00;102176.59;5238827;28;20043;-69
2023/06/02 07:07:29;;;;;;;19.05;3.72;;;;;;;12.93;100.00;102175.31;5234167;28;20143;-69
2023/06/02 07:09:59;;;;;;;21.48;3.78;;;;;;;12.96;100.00;102175.03;5239920;28;20062;-69
2023/06/02 07:12:30;;;;;;;17.52;3.83;;;;;;;13.10;100.00;102171.81;5234084;28;20104;-69
2023/06/02 07:15:00;;;;;;;15.02;4.53;;;;;;;13.25;100.00;102184.78;5238832;28;20031;-69
2023/06/02 07:17:31;;;;;;;14.57;3.67;;;;;;;13.42;100.00;102174.06;5235068;28;20484;-69
2023/06/02 07:20:02;;;;;;;11.68;3.30;;;;;;;13.51;100.00;102177.69;5237904;28;20362;-70
2023/06/02 07:22:32;;;;;;;17.08;3.60;;;;;;;13.52;100.00;102176.69;5228611;28;20032;-70
2023/06/02 07:25:04;;;;;;;16.15;3.83;;;;;;;13.57;100.00;102177.06;5230818;28;20029;-69
2023/06/02 07:27:35;;;;;;;16.02;3.97;;;;;;;13.62;100.00;102173.91;5242774;28;20021;-69
2023/06/02 07:30:07;;;;;;;11.90;4.72;;;;;;;13.73;100.00;102177.22;5232136;28;20039;-70
2023/06/02 07:32:37;;;;;;;16.67;4.45;;;;;;;13.81;100.00;102176.44;5244373;28;20122;-70
2023/06/02 07:35:08;;;;;;;18.05;3.78;;;;;;;13.88;100.00;102176.66;5243337;28;20050;-70
2023/06/02 07:37:38;;;;;;;22.13;4.57;;;;;;;13.92;100.00;102180.75;5244054;28;20020;-70
2023/06/02 07:40:09;;;;;;;9.95;3.42;;;;;;;13.81;100.00;102175.63;5244822;28;20029;-70
2023/06/02 07:42:40;;;;;;;14.90;4.07;;;;;;;13.84;100.00;102175.28;5244001;28;20124;-69
2023/06/02 07:45:11;;;;;;;21.10;4.10;;;;;;;13.88;100.00;102171.28;5244500;28;20466;-70
2023/06/02 07:47:41;;;;;;;13.35;3.92;;;;;;;13.78;100.00;102175.91;5243757;28;20028;-69
2023/06/02 07:50:12;;;;;;;12.57;3.30;;;;;;;13.77;100.00;102172.38;5231536;28;20483;-70
2023/06/02 07:52:42;;;;;;;12.82;4.43;;;;;;;13.72;100.00;102178.22;5236183;28;20017;-69
2023/06/02 07:55:13;;;;;;;12.77;3.80;;;;;;;13.68;100.00;102176.81;5219186;28;20025;-69
2023/06/02 07:57:43;;;;;;;9.48;3.90;;;;;;;13.72;100.00;102177.38;5231078;28;20471;-69
2023/06/02 08:00:16;;;;;;;13.82;3.85;;;;;;;13.78;100.00;102175.91;5243938;28;20025;-70
2023/06/02 08:02:47;;;;;;;15.45;4.32;;;;;;;13.92;100.00;102172.66;5234188;28;20024;-70
2023/06/02 08:05:18;;;;;;;17.88;3.92;;;;;;;13.95;100.00;102180.44;5236319;28;20406;-69
2023/06/02 08:07:49;;;;;;;10.35;3.95;;;;;;;13.97;100.00;102183.84;5233852;28;20031;-69
2023/06/02 08:10:20;;;;;;;9.50;3.60;;;;;;;14.10;100.00;102178.03;5243831;28;20409;-70
2023/06/02 08:12:50;;;;;;;15.82;3.95;;;;;;;14.33;100.00;102187.31;5243623;28;20029;-70
2023/06/02 08:15:21;;;;;;;15.98;4.55;;;;;;;14.52;100.00;102183.59;5229655;28;20103;-70
2023/06/02 08:17:51;;;;;;;30.70;4.70;;;;;;;14.65;100.00;102181.28;5242778;28;20406;-70
2023/06/02 08:20:22;;;;;;;17.35;3.75;;;;;;;14.80;100.00;102177.97;5227506;28;20025;-70
2023/06/02 08:22:52;;;;;;;16.70;3.75;;;;;;;14.95;100.00;102177.19;5230179;28;20028;-70
2023/06/02 08:25:23;;;;;;;16.13;4.10;;;;;;;14.99;100.00;102188.53;5243415;28;20028;-70
2023/06/02 08:27:54;;;;;;;17.08;4.32;;;;;;;15.06;100.00;102183.31;5242965;28;20024;-70
2023/06/02 08:30:25;;;;;;;15.02;3.83;;;;;;;15.15;100.00;102183.19;5243041;28;20028;-70
2023/06/02 08:32:56;;;;;;;13.85;3.90;;;;;;;15.02;100.00;102188.22;5243327;28;20451;-70
2023/06/02 08:35:28;;;;;;;13.27;3.88;;;;;;;15.07;100.00;102174.22;5242936;28;20113;-70
2023/06/02 08:38:02;;;;;;;16.13;3.90;;;;;;;15.34;100.00;102179.38;5242643;28;20016;-70
2023/06/02 08:40:36;;;;;;;14.10;3.70;;;;;;;15.57;100.00;102176.88;5243116;28;20156;-70
2023/06/02 08:45:56;;;;;;;12.57;4.38;;;;;;;15.40;100.00;102183.25;5240413;28;20028;-70
2023/06/02 08:48:29;;;;;;;27.65;4.35;;;;;;;15.46;100.00;102182.59;5240372;28;20359;-70
2023/06/02 08:51:03;;;;;;;9.70;3.28;;;;;;;15.65;100.00;102176.91;5239562;28;20036;-70
2023/06/02 08:53:35;;;;;;;19.00;4.10;;;;;;;16.00;100.00;102180.31;5241838;28;20079;-70
2023/06/02 08:56:06;;;;;;;19.52;3.40;;;;;;;16.20;100.00;102170.81;5232785;28;20039;-70
2023/06/02 08:58:37;;;;;;;14.73;3.47;;;;;;;16.28;100.00;102173.53;5220993;28;20024;-70
2023/06/02 09:01:07;;;;;;;13.77;3.35;;;;;;;16.49;100.00;102166.72;5230830;28;20497;-70
2023/06/02 09:03:38;;;;;;;17.13;3.83;;;;;;;16.64;100.00;102175.81;5223062;28;20486;-70
2023/06/02 09:06:23;;;;;;;19.50;3.78;;;;;;;16.68;100.00;102170.91;5231737;28;20081;-70
2023/06/02 09:09:10;;;;;;;10.65;3.33;;;;;;;16.76;100.00;102177.16;5217230;28;20047;-70
2023/06/02 09:11:56;;;;;;;15.73;3.50;;;;;;;16.67;100.00;102174.63;5224419;28;20032;-70
2023/06/02 09:14:27;;;;;;;19.45;4.13;;;;;;;16.83;100.00;102180.03;5240141;28;20051;-70
2023/06/02 09:16:57;;;;;;;16.20;3.72;;;;;;;16.80;100.00;102180.38;5227423;28;20027;-70
2023/06/02 09:19:49;;;;;;;11.02;3.42;;;;;;;16.73;100.00;102182.09;5243562;28;20024;-70
2023/06/02 09:22:20;;;;;;;11.32;3.80;;;;;;;16.81;100.00;102176.63;5226800;28;20056;-70
2023/06/02 09:24:53;;;;;;;11.27;3.45;;;;;;;17.26;100.00;102180.50;5228021;28;20039;-70
2023/06/02 09:27:25;;;;;;;15.40;3.97;;;;;;;17.19;100.00;102180.38;5241711;28;20039;-70
2023/06/02 09:30:15;;;;;;;23.60;4.07;;;;;;;17.23;100.00;102179.00;5240589;28;20048;-70
2023/06/02 09:33:22;;;;;;;17.50;4.25;;;;;;;17.69;100.00;102180.91;5238652;28;20059;-70
2023/06/02 09:35:53;;;;;;;18.38;4.38;;;;;;;17.92;100.00;102172.78;5238830;28;20023;-70
2023/06/02 09:38:24;;;;;;;17.92;3.63;;;;;;;18.36;100.00;102175.59;5241285;28;20546;-70
2023/06/02 09:40:54;;;;;;;15.00;3.75;;;;;;;18.76;100.00;102184.34;5239842;28;20045;-70
2023/06/02 09:43:44;;;;;;;15.77;3.58;;;;;;;18.47;100.00;102177.00;5238978;28;20142;-70
2023/06/02 09:46:14;;;;;;;12.57;3.50;;;;;;;18.91;100.00;102173.47;5238193;28;20047;-70
2023/06/02 09:48:55;;;;;;;23.95;3.35;;;;;;;19.33;100.00;102175.47;5239440;28;20053;-70
2023/06/02 09:51:26;;;;;;;11.13;3.30;;;;;;;19.41;100.00;102180.78;5239001;28;20443;-70
2023/06/02 09:53:58;;;;;;;19.02;3.80;;;;;;;18.99;100.00;102181.53;5234262;28;20032;-70
2023/06/02 09:56:33;;;;;;;14.23;3.63;;;;;;;18.51;100.00;102179.16;5237626;28;20095;-70
2023/06/02 09:59:05;;;;;;;18.75;3.80;;;;;;;18.23;100.00;102181.69;5239302;28;20025;-70
2023/06/02 10:01:36;;;;;;;12.32;3.42;;;;;;;18.04;100.00;102172.16;5239622;28;20036;-70
2023/06/02 10:04:07;;;;;;;15.15;3.45;;;;;;;18.08;100.00;102169.94;5245438;28;20020;-70
2023/06/02 10:06:52;;;;;;;11.30;3.90;;;;;;;18.31;100.00;102162.56;5248477;28;20082;-70
2023/06/02 10:09:58;;;;;;;10.00;3.17;;;;;;;18.69;100.00;102172.56;5238459;28;20032;-70
2023/06/02 10:12:53;;;;;;;14.32;3.25;;;;;;;18.79;100.00;102154.09;5239680;28;20505;-70
2023/06/02 10:15:49;;;;;;;11.83;3.63;;;;;;;18.83;100.00;102158.13;5247341;28;20032;-70
2023/06/02 10:18:26;;;;;;;14.10;4.35;;;;;;;18.76;100.00;102151.75;5243646;28;20870;-70
2023/06/02 10:21:18;;;;;;;10.75;3.38;;;;;;;19.10;100.00;102153.84;5242643;28;20505;-70
2023/06/02 10:24:25;;;;;;;20.17;4.00;;;;;;;19.74;100.00;102151.22;5243002;28;20032;-70
2023/06/02 10:27:28;;;;;;;8.43;3.10;;;;;;;19.94;100.00;102148.69;5235948;28;20028;-70
2023/06/02 10:29:59;;;;;;;13.48;4.38;;;;;;;20.14;96.60;102152.41;5243357;28;20042;-70
2023/06/02 10:32:41;;;;;;;11.95;3.22;;;;;;;19.95;100.00;102146.78;5242250;28;20025;-70
2023/06/02 10:35:11;;;;;;;9.98;4.00;;;;;;;20.20;100.00;102139.03;5246557;28;20048;-71
2023/06/02 10:37:43;;;;;;;10.93;3.38;;;;;;;20.09;100.00;102138.53;5247484;28;20611;-70
2023/06/02 10:40:15;;;;;;;17.45;4.00;;;;;;;20.35;100.00;102126.97;5247990;28;20016;-71
2023/06/02 10:43:22;;;;;;;10.73;3.15;;;;;;;20.66;100.00;102126.53;5246964;28;20028;-71
2023/06/02 10:46:13;;;;;;;11.57;3.67;;;;;;;20.37;100.00;102134.94;5239765;28;20032;-70
2023/06/02 10:48:43;;;;;;;13.85;3.80;;;;;;;19.91;100.00;102138.16;5239945;28;20035;-71
2023/06/02 10:51:16;;;;;;;13.13;3.13;;;;;;;20.03;100.00;102133.88;5248827;28;20017;-71
2023/06/02 10:53:59;;;;;;;9.70;3.08;;;;;;;20.12;100.00;102131.81;5247784;28;20024;-71
2023/06/02 10:56:48;;;;;;;15.95;3.63;;;;;;;20.38;100.00;102126.59;5246021;28;20028;-72
2023/06/02 10:59:34;;;;;;;12.40;3.20;;;;;;;20.39;100.00;102122.81;5247796;28;20025;-71
2023/06/02 11:02:05;;;;;;;12.20;3.88;;;;;;;20.22;99.94;102121.41;5249130;28;20024;-71
2023/06/02 11:04:38;;;;;;;13.88;3.50;;;;;;;19.67;100.00;102121.19;5241271;28;20071;-72
2023/06/02 11:07:26;;;;;;;14.23;4.20;;;;;;;19.75;100.00;102125.69;5238955;28;20056;-71
2023/06/02 11:10:00;;;;;;;13.40;3.88;;;;;;;20.07;100.00;102126.97;5237572;28;20059;-71
2023/06/02 11:12:49;;;;;;;14.48;4.22;;;;;;;20.40;100.00;102132.66;5238728;28;20032;-72
2023/06/02 11:15:20;;;;;;;11.57;4.03;;;;;;;20.42;100.00;102125.13;5238544;28;20028;-71
2023/06/02 11:17:51;;;;;;;10.13;3.45;;;;;;;20.71;95.75;102122.38;5238136;28;20027;-71
2023/06/02 11:20:32;;;;;;;13.60;3.85;;;;;;;20.73;100.00;102115.66;5239878;28;20409;-71
2023/06/02 11:23:04;;;;;;;13.07;3.63;;;;;;;20.84;100.00;102123.28;5242604;28;20025;-72
2023/06/02 11:25:35;;;;;;;18.58;4.57;;;;;;;21.08;100.00;102115.59;5238643;28;20058;-72
2023/06/02 11:28:17;;;;;;;13.25;3.90;;;;;;;21.17;91.89;102117.09;5242501;28;20128;-71
2023/06/02 11:31:25;;;;;;;13.82;3.67;;;;;;;20.66;100.00;102118.34;5246660;28;20035;-71
2023/06/02 11:33:55;;;;;;;15.50;4.20;;;;;;;20.60;100.00;102113.72;5239285;28;20036;-71
2023/06/02 11:36:29;;;;;;;23.38;4.65;;;;;;;20.75;100.00;102115.47;5238056;28;20028;-72
2023/06/02 11:39:18;;;;;;;16.65;3.88;;;;;;;20.97;100.00;102102.53;5246857;28;20028;-71